createdAt,value
2019-06-20T00:01:34.859Z,20.11
2019-06-20T00:03:43.256Z,20.10
2019-06-20T00:05:51.528Z,20.09
2019-06-20T00:08:00.885Z,20.11
2019-06-20T00:10:11.882Z,20.14
2019-06-20T00:12:20.126Z,20.14
2019-06-20T00:14:28.174Z,20.16
2019-06-20T00:16:36.423Z,20.20
2019-06-20T00:18:44.929Z,20.24
2019-06-20T00:20:53.066Z,20.27
2019-06-20T00:23:01.238Z,20.29
2019-06-20T00:25:09.750Z,20.31
2019-06-20T00:27:18.693Z,20.32
2019-06-20T00:29:26.987Z,20.32
2019-06-20T00:31:35.918Z,20.32
2019-06-20T00:33:44.681Z,20.34
2019-06-20T00:35:53.870Z,20.34
2019-06-20T00:38:02.134Z,20.33
2019-06-20T00:40:11.857Z,20.32
2019-06-20T00:42:21.009Z,20.32
2019-06-20T00:44:29.141Z,20.32
2019-06-20T00:46:37.437Z,20.30
2019-06-20T00:48:45.636Z,20.31
2019-06-20T00:50:53.890Z,20.30
2019-06-20T00:53:02.039Z,20.31
2019-06-20T00:55:11.194Z,20.26
2019-06-20T00:57:20.246Z,20.20
2019-06-20T00:59:28.510Z,20.14
2019-06-20T01:01:37.220Z,20.09
2019-06-20T01:03:45.361Z,20.08
2019-06-20T01:05:53.676Z,20.07
2019-06-20T01:08:01.871Z,20.06
2019-06-20T01:10:11.872Z,20.07
2019-06-20T01:12:21.173Z,20.08
2019-06-20T01:14:29.742Z,20.09
2019-06-20T01:16:37.917Z,20.05
2019-06-20T01:18:46.066Z,19.91
2019-06-20T01:20:54.399Z,19.76
2019-06-20T01:23:02.737Z,19.75
2019-06-20T01:25:11.126Z,19.78
2019-06-20T01:27:19.271Z,19.79
2019-06-20T01:29:27.526Z,19.81
2019-06-20T01:31:36.276Z,19.82
2019-06-20T01:33:45.518Z,19.83
2019-06-20T01:35:53.756Z,19.83
2019-06-20T01:38:02.525Z,19.84
2019-06-20T01:40:12.455Z,19.84
2019-06-20T01:42:22.365Z,19.84
2019-06-20T01:44:30.513Z,19.83
2019-06-20T01:46:38.586Z,19.85
2019-06-20T01:48:46.956Z,19.85
2019-06-20T01:50:55.951Z,19.86
2019-06-20T01:53:04.132Z,19.86
2019-06-20T01:55:12.451Z,19.87
2019-06-20T01:57:20.799Z,19.86
2019-06-20T01:59:28.947Z,19.86
2019-06-20T02:01:37.200Z,19.83
2019-06-20T02:03:45.417Z,19.81
2019-06-20T02:05:53.779Z,19.78
2019-06-20T02:08:02.147Z,19.78
2019-06-20T02:10:10.535Z,19.75
2019-06-20T02:12:18.596Z,19.73
2019-06-20T02:14:26.867Z,19.69
2019-06-20T02:16:35.198Z,19.64
2019-06-20T02:18:43.416Z,19.60
2019-06-20T02:20:59.889Z,19.55
2019-06-20T02:23:08.940Z,19.54
2019-06-20T02:25:17.235Z,19.52
2019-06-20T02:27:25.649Z,19.52
2019-06-20T02:29:34.307Z,19.53
2019-06-20T02:31:42.447Z,19.53
2019-06-20T02:33:50.692Z,19.54
2019-06-20T02:35:58.850Z,19.56
2019-06-20T02:38:07.116Z,19.57
2019-06-20T02:40:15.734Z,19.59
2019-06-20T02:42:24.479Z,19.60
2019-06-20T02:44:32.614Z,19.62
2019-06-20T02:46:42.146Z,19.63
2019-06-20T02:48:50.234Z,19.65
2019-06-20T02:50:58.626Z,19.67
2019-06-20T02:53:07.210Z,19.70
2019-06-20T02:55:15.898Z,19.73
2019-06-20T02:57:25.089Z,19.77
2019-06-20T02:59:33.284Z,19.79
2019-06-20T03:01:41.434Z,19.79
2019-06-20T03:03:49.573Z,19.82
2019-06-20T03:05:58.013Z,19.85
2019-06-20T03:08:06.293Z,19.90
2019-06-20T03:10:15.779Z,19.96
2019-06-20T03:12:24.102Z,20.02
2019-06-20T03:14:44.966Z,20.13
2019-06-20T03:16:42.099Z,20.26
2019-06-20T03:18:50.176Z,20.45
2019-06-20T03:20:58.390Z,20.67
2019-06-20T03:23:06.578Z,20.92
2019-06-20T03:25:16.821Z,21.17
2019-06-20T03:27:25.180Z,21.42
2019-06-20T03:29:33.304Z,21.63
2019-06-20T03:31:41.554Z,21.77
2019-06-20T03:33:49.870Z,21.85
2019-06-20T03:35:58.112Z,21.92
2019-06-20T03:38:06.276Z,21.93
2019-06-20T03:40:15.551Z,21.91
2019-06-20T03:42:23.877Z,21.93
2019-06-20T03:44:33.167Z,21.99
2019-06-20T03:46:41.319Z,22.03
2019-06-20T03:48:50.532Z,22.03
2019-06-20T03:50:58.609Z,22.06
2019-06-20T03:53:06.896Z,22.09
2019-06-20T03:55:15.281Z,22.12
2019-06-20T03:57:24.536Z,22.17
2019-06-20T03:59:32.823Z,22.20
2019-06-20T04:01:40.942Z,22.22
2019-06-20T04:03:49.097Z,22.25
2019-06-20T04:05:57.460Z,22.26
2019-06-20T04:08:05.963Z,22.30
2019-06-20T04:10:14.213Z,22.32
2019-06-20T04:12:22.435Z,22.36
2019-06-20T04:14:30.952Z,22.39
2019-06-20T04:16:39.136Z,22.42
2019-06-20T04:18:47.386Z,22.42
2019-06-20T04:20:57.094Z,22.45
2019-06-20T04:23:05.432Z,22.46
2019-06-20T04:25:13.894Z,22.52
2019-06-20T04:27:22.048Z,22.57
2019-06-20T04:29:30.241Z,22.64
2019-06-20T04:31:38.460Z,22.70
2019-06-20T04:33:46.605Z,22.76
2019-06-20T04:35:54.886Z,22.79
2019-06-20T04:38:04.105Z,22.81
2019-06-20T04:40:14.149Z,22.86
2019-06-20T04:42:22.634Z,22.93
2019-06-20T04:44:31.560Z,22.98
2019-06-20T04:46:44.734Z,23.05
2019-06-20T04:48:52.917Z,23.11
2019-06-20T04:51:01.871Z,23.20
2019-06-20T04:53:10.110Z,23.24
2019-06-20T04:55:18.395Z,23.28
2019-06-20T04:57:29.434Z,23.28
2019-06-20T04:59:38.049Z,23.31
2019-06-20T05:01:47.107Z,23.34
2019-06-20T05:03:55.377Z,23.37
2019-06-20T05:06:04.500Z,23.41
2019-06-20T05:08:12.722Z,23.45
2019-06-20T05:10:22.034Z,23.50
2019-06-20T05:12:30.265Z,23.54
2019-06-20T05:14:38.441Z,23.59
2019-06-20T05:16:46.498Z,23.64
2019-06-20T05:18:54.743Z,23.69
2019-06-20T05:21:02.939Z,23.77
2019-06-20T05:23:11.238Z,23.87
2019-06-20T05:25:20.243Z,23.97
2019-06-20T05:27:28.433Z,24.08
2019-06-20T05:29:37.248Z,24.13
2019-06-20T05:31:45.452Z,24.29
2019-06-20T05:33:53.763Z,24.38
2019-06-20T05:36:02.189Z,24.40
2019-06-20T05:38:13.680Z,24.45
2019-06-20T05:40:22.132Z,24.51
2019-06-20T05:42:30.417Z,24.55
2019-06-20T05:44:39.644Z,24.60
2019-06-20T05:46:48.883Z,24.64
2019-06-20T05:48:57.047Z,24.65
2019-06-20T05:51:06.306Z,24.66
2019-06-20T05:53:14.617Z,24.72
2019-06-20T05:55:22.848Z,24.78
2019-06-20T05:57:31.802Z,24.86
2019-06-20T05:59:39.958Z,24.93
2019-06-20T06:01:48.283Z,24.99
2019-06-20T06:03:56.588Z,25.03
2019-06-20T06:06:05.740Z,25.12
2019-06-20T06:08:13.995Z,25.17
2019-06-20T06:10:23.233Z,25.25
2019-06-20T06:12:33.075Z,25.29
2019-06-20T06:14:41.230Z,25.33
2019-06-20T06:16:49.880Z,25.34
2019-06-20T06:18:58.066Z,25.34
2019-06-20T06:21:06.890Z,25.35
2019-06-20T06:23:15.120Z,25.35
2019-06-20T06:25:23.269Z,25.34
2019-06-20T06:27:31.401Z,25.32
2019-06-20T06:29:39.689Z,25.31
2019-06-20T06:31:47.868Z,25.38
2019-06-20T06:33:56.190Z,25.41
2019-06-20T06:36:04.305Z,25.43
2019-06-20T06:38:21.979Z,25.45
2019-06-20T06:40:25.808Z,25.46
2019-06-20T06:42:34.747Z,25.43
2019-06-20T06:44:43.176Z,25.40
2019-06-20T06:46:57.483Z,25.42
2019-06-20T06:49:02.176Z,25.44
2019-06-20T06:51:10.359Z,25.48
2019-06-20T06:53:18.571Z,25.52
2019-06-20T06:55:27.790Z,25.58
2019-06-20T06:57:36.656Z,25.64
2019-06-20T06:59:44.878Z,25.72
2019-06-20T07:01:53.433Z,25.78
2019-06-20T07:04:01.548Z,25.84
2019-06-20T07:06:09.665Z,25.89
2019-06-20T07:08:17.944Z,25.95
2019-06-20T07:10:26.434Z,26.00
2019-06-20T07:12:34.653Z,26.03
2019-06-20T07:14:43.080Z,26.08
2019-06-20T07:17:00.185Z,26.11
2019-06-20T07:19:01.361Z,26.11
2019-06-20T07:21:09.633Z,26.16
2019-06-20T07:23:18.077Z,26.15
2019-06-20T07:25:26.301Z,26.22
2019-06-20T07:27:34.629Z,26.33
2019-06-20T07:29:42.813Z,26.42
2019-06-20T07:31:51.336Z,26.53
2019-06-20T07:33:59.591Z,26.62
2019-06-20T07:36:08.144Z,26.68
2019-06-20T07:38:16.419Z,26.71
2019-06-20T07:40:24.763Z,26.76
2019-06-20T07:42:32.946Z,26.77
2019-06-20T07:44:41.240Z,26.76
2019-06-20T07:46:49.419Z,26.76
2019-06-20T07:48:58.669Z,26.79
2019-06-20T07:51:06.854Z,26.80
2019-06-20T07:53:15.009Z,26.86
2019-06-20T07:55:23.465Z,26.90
2019-06-20T07:57:31.635Z,26.95
2019-06-20T07:59:40.186Z,26.97
2019-06-20T08:01:49.417Z,27.01
2019-06-20T08:03:58.362Z,26.98
2019-06-20T08:06:06.483Z,26.95
2019-06-20T08:08:16.374Z,26.88
2019-06-20T08:10:28.324Z,26.84
2019-06-20T08:12:36.666Z,26.84
2019-06-20T08:14:46.297Z,26.83
2019-06-20T08:16:54.636Z,26.83
2019-06-20T08:19:02.862Z,26.85
2019-06-20T08:21:11.091Z,26.85
2019-06-20T08:23:19.282Z,26.82
2019-06-20T08:25:27.679Z,26.80
2019-06-20T08:27:50.396Z,26.82
2019-06-20T08:29:59.064Z,26.83
2019-06-20T08:32:07.908Z,26.82
2019-06-20T08:34:16.127Z,26.80
2019-06-20T08:36:24.187Z,26.77
2019-06-20T08:38:32.409Z,26.72
2019-06-20T08:40:43.705Z,26.68
2019-06-20T08:42:51.941Z,26.64
2019-06-20T08:45:00.119Z,26.65
2019-06-20T08:47:09.329Z,26.65
2019-06-20T08:49:18.662Z,26.64
2019-06-20T08:51:26.923Z,26.63
2019-06-20T08:53:35.193Z,26.60
2019-06-20T08:55:44.655Z,26.56
2019-06-20T08:57:55.622Z,26.59
2019-06-20T09:02:11.648Z,26.64
2019-06-20T09:04:22.386Z,26.65
2019-06-20T09:06:29.794Z,26.68
2019-06-20T09:08:39.104Z,26.69
2019-06-20T09:10:48.597Z,26.70
2019-06-20T09:12:57.131Z,26.69
2019-06-20T09:15:09.500Z,26.70
2019-06-20T09:17:17.668Z,26.69
2019-06-20T09:19:25.932Z,26.70
2019-06-20T09:21:34.146Z,26.73
2019-06-20T09:23:42.541Z,26.73
2019-06-20T09:25:51.144Z,26.73
2019-06-20T09:28:03.402Z,26.74
2019-06-20T09:30:12.998Z,26.74
2019-06-20T09:32:21.692Z,26.75
2019-06-20T09:34:29.868Z,26.75
2019-06-20T09:36:38.285Z,26.76
2019-06-20T09:38:47.307Z,26.77
2019-06-20T09:40:56.906Z,26.79
2019-06-20T09:43:07.132Z,26.80
2019-06-20T09:45:16.377Z,26.82
2019-06-20T09:47:24.499Z,26.87
2019-06-20T09:49:34.764Z,26.90
2019-06-20T09:51:43.018Z,26.94
2019-06-20T09:53:51.882Z,26.99
2019-06-20T09:56:00.195Z,27.06
2019-06-20T09:58:08.432Z,27.10
2019-06-20T10:00:20.985Z,26.97
2019-06-20T10:02:29.248Z,27.08
2019-06-20T10:04:37.729Z,27.14
2019-06-20T10:06:47.400Z,27.18
2019-06-20T10:08:56.547Z,27.21
2019-06-20T10:11:04.921Z,27.23
2019-06-20T10:13:12.994Z,27.27
2019-06-20T10:15:26.534Z,27.27
2019-06-20T10:17:35.937Z,27.33
2019-06-20T10:19:46.732Z,27.38
2019-06-20T10:21:55.993Z,27.44
2019-06-20T10:24:04.390Z,27.51
2019-06-20T10:26:12.512Z,27.61
2019-06-20T10:28:20.905Z,27.69
2019-06-20T10:30:30.198Z,27.82
2019-06-20T10:32:38.567Z,27.73
2019-06-20T10:34:48.751Z,27.68
2019-06-20T10:36:58.557Z,27.93
2019-06-20T10:39:11.906Z,28.04
2019-06-20T10:41:20.106Z,28.07
2019-06-20T10:43:28.551Z,28.20
2019-06-20T10:45:37.736Z,28.29
2019-06-20T10:47:47.206Z,28.37
2019-06-20T10:49:56.947Z,28.43
2019-06-20T10:52:06.645Z,27.66
2019-06-20T10:54:15.043Z,27.25
2019-06-20T10:56:23.295Z,27.06
2019-06-20T10:58:33.466Z,27.35
2019-06-20T11:00:43.040Z,27.22
2019-06-20T11:02:51.785Z,27.55
2019-06-20T11:05:00.172Z,27.70
2019-06-20T11:07:08.510Z,27.90
2019-06-20T11:09:17.706Z,27.78
2019-06-20T11:11:26.021Z,27.92
2019-06-20T11:13:34.128Z,28.10
2019-06-20T11:15:42.385Z,28.24
2019-06-20T11:17:56.380Z,28.07
2019-06-20T11:20:05.002Z,27.96
2019-06-20T11:22:15.728Z,27.61
2019-06-20T11:24:24.023Z,27.79
2019-06-20T11:26:33.120Z,27.87
2019-06-20T11:28:42.312Z,27.92
2019-06-20T11:30:58.187Z,28.11
2019-06-20T11:33:00.502Z,27.77
2019-06-20T11:35:09.670Z,28.12
2019-06-20T11:37:17.864Z,28.32
2019-06-20T11:39:26.161Z,27.91
2019-06-20T11:41:34.975Z,28.21
2019-06-20T11:43:46.801Z,27.47
2019-06-20T11:45:58.060Z,27.64
2019-06-20T11:48:06.403Z,27.50
2019-06-20T11:50:16.784Z,27.21
2019-06-20T11:52:26.515Z,27.43
2019-06-20T11:54:35.944Z,27.21
2019-06-20T11:56:44.244Z,27.22
2019-06-20T11:58:52.421Z,27.48
2019-06-20T12:01:03.926Z,27.65
2019-06-20T12:03:10.655Z,27.69
2019-06-20T12:05:20.822Z,27.80
2019-06-20T12:07:29.011Z,27.59
2019-06-20T12:09:37.978Z,27.75
2019-06-20T12:11:48.903Z,28.02
2019-06-20T12:14:00.356Z,28.24
2019-06-20T12:16:08.690Z,28.35
2019-06-20T12:18:17.104Z,28.58
2019-06-20T12:20:25.791Z,28.69
2019-06-20T12:22:33.922Z,28.81
2019-06-20T12:24:44.539Z,28.88
2019-06-20T12:26:52.971Z,28.93
2019-06-20T12:29:01.199Z,28.94
2019-06-20T12:31:18.969Z,28.92
2019-06-20T12:33:19.381Z,29.06
2019-06-20T12:35:28.525Z,29.18
2019-06-20T12:37:36.750Z,29.23
2019-06-20T12:39:44.856Z,29.30
2019-06-20T12:41:52.976Z,29.33
2019-06-20T12:44:02.628Z,29.39
2019-06-20T12:46:10.826Z,29.44
2019-06-20T12:48:20.605Z,29.50
2019-06-20T12:50:29.640Z,29.54
2019-06-20T12:52:39.556Z,29.58
2019-06-20T12:54:49.156Z,29.61
2019-06-20T12:56:58.374Z,29.68
2019-06-20T12:59:08.393Z,29.66
2019-06-20T13:01:16.878Z,29.61
2019-06-20T13:03:26.675Z,29.74
2019-06-20T13:05:35.248Z,29.84
2019-06-20T13:07:44.230Z,29.94
2019-06-20T13:09:52.590Z,30.00
2019-06-20T13:12:00.786Z,30.03
2019-06-20T13:14:09.793Z,30.15
2019-06-20T13:16:18.097Z,30.19
2019-06-20T13:18:26.487Z,30.28
2019-06-20T13:20:34.852Z,30.16
2019-06-20T13:22:44.654Z,30.22
2019-06-20T13:24:53.967Z,30.22
2019-06-20T13:27:02.416Z,30.22
2019-06-20T13:29:10.549Z,30.22
2019-06-20T13:31:18.733Z,30.23
2019-06-20T13:33:27.681Z,30.14
2019-06-20T13:35:35.815Z,30.00
2019-06-20T13:37:45.628Z,29.82
2019-06-20T13:39:54.545Z,29.57
2019-06-20T13:42:02.762Z,29.32
2019-06-20T13:44:11.178Z,29.08
2019-06-20T13:46:19.414Z,28.86
2019-06-20T13:48:27.719Z,28.64
2019-06-20T13:50:37.101Z,28.43
2019-06-20T13:52:46.831Z,28.25
2019-06-20T13:54:55.116Z,28.10
2019-06-20T13:57:03.212Z,28.06
2019-06-20T13:59:11.511Z,28.07
2019-06-20T14:01:19.842Z,28.04
2019-06-20T14:03:27.940Z,28.06
2019-06-20T14:05:36.415Z,28.10
2019-06-20T14:07:48.423Z,28.20
2019-06-20T14:09:55.531Z,28.30
2019-06-20T14:12:05.289Z,28.45
2019-06-20T14:14:15.215Z,28.57
2019-06-20T14:16:23.560Z,28.67
2019-06-20T14:18:32.565Z,28.74
2019-06-20T14:20:43.123Z,28.80
2019-06-20T14:22:52.243Z,28.84
2019-06-20T14:25:00.973Z,28.87
2019-06-20T14:27:09.026Z,28.89
2019-06-20T14:29:18.146Z,28.94
2019-06-20T14:31:26.413Z,29.01
2019-06-20T14:33:34.646Z,29.06
2019-06-20T14:35:44.016Z,29.14
2019-06-20T14:37:53.153Z,29.21
2019-06-20T14:40:02.852Z,29.20
2019-06-20T14:42:11.215Z,29.25
2019-06-20T14:44:20.736Z,29.26
2019-06-20T14:46:29.000Z,29.24
2019-06-20T14:48:37.316Z,29.25
2019-06-20T14:50:47.723Z,29.25
2019-06-20T14:52:56.324Z,29.23
2019-06-20T14:55:07.914Z,29.19
2019-06-20T14:57:15.980Z,29.14
2019-06-20T14:59:24.132Z,29.07
2019-06-20T15:01:32.411Z,29.01
2019-06-20T15:03:41.245Z,28.97
2019-06-20T15:05:50.178Z,28.89
2019-06-20T15:07:58.735Z,28.79
2019-06-20T15:10:08.320Z,28.72
2019-06-20T15:12:16.608Z,28.64
2019-06-20T15:14:24.838Z,28.63
2019-06-20T15:16:33.172Z,28.61
2019-06-20T15:18:41.299Z,28.63
2019-06-20T15:20:50.223Z,28.66
2019-06-20T15:22:58.512Z,28.78
2019-06-20T15:25:08.400Z,29.07
2019-06-20T15:27:16.624Z,29.13
2019-06-20T15:29:24.881Z,29.07
2019-06-20T15:31:33.124Z,29.01
2019-06-20T15:33:42.036Z,28.94
2019-06-20T15:35:53.410Z,28.87
2019-06-20T15:38:02.919Z,28.84
2019-06-20T15:40:11.816Z,28.77
2019-06-20T15:42:22.384Z,28.69
2019-06-20T15:44:30.858Z,28.61
2019-06-20T15:46:39.250Z,28.55
2019-06-20T15:48:47.475Z,28.51
2019-06-20T15:50:56.770Z,28.45
2019-06-20T15:53:04.950Z,28.40
2019-06-20T15:55:13.676Z,28.36
2019-06-20T15:57:21.974Z,28.32
2019-06-20T15:59:30.272Z,28.29
2019-06-20T16:01:39.331Z,28.30
2019-06-20T16:03:47.625Z,28.29
2019-06-20T16:05:56.965Z,28.28
2019-06-20T16:08:05.153Z,28.26
2019-06-20T16:10:14.464Z,28.25
2019-06-20T16:12:22.724Z,28.22
2019-06-20T16:14:32.479Z,28.17
2019-06-20T16:16:41.122Z,28.17
2019-06-20T16:18:49.525Z,28.20
2019-06-20T16:20:58.327Z,28.25
2019-06-20T16:23:08.132Z,28.28
2019-06-20T16:25:17.329Z,28.29
2019-06-20T16:27:25.628Z,28.27
2019-06-20T16:29:33.782Z,28.27
2019-06-20T16:31:42.628Z,28.29
2019-06-20T16:33:52.286Z,28.31
2019-06-20T16:36:01.315Z,28.33
2019-06-20T16:38:09.662Z,28.36
2019-06-20T16:40:23.039Z,28.36
2019-06-20T16:42:31.273Z,28.38
2019-06-20T16:44:39.628Z,28.37
2019-06-20T16:46:47.858Z,28.38
2019-06-20T16:48:57.249Z,28.40
2019-06-20T16:51:06.595Z,28.42
2019-06-20T16:53:16.775Z,28.45
2019-06-20T16:55:25.054Z,28.46
2019-06-20T16:57:34.164Z,28.46
2019-06-20T16:59:42.612Z,28.47
2019-06-20T17:01:52.656Z,28.47
2019-06-20T17:04:01.145Z,28.43
2019-06-20T17:06:09.560Z,28.38
2019-06-20T17:08:17.759Z,28.35
2019-06-20T17:10:26.333Z,28.30
2019-06-20T17:12:35.733Z,28.27
2019-06-20T17:14:44.083Z,28.26
2019-06-20T17:16:52.454Z,28.24
2019-06-20T17:19:02.526Z,28.23
2019-06-20T17:21:10.836Z,28.21
2019-06-20T17:23:19.316Z,28.20
2019-06-20T17:25:29.283Z,28.17
2019-06-20T17:27:37.649Z,28.18
2019-06-20T17:29:46.041Z,28.18
2019-06-20T17:31:57.280Z,28.19
2019-06-20T17:34:04.431Z,28.20
2019-06-20T17:36:18.205Z,28.21
2019-06-20T17:38:22.775Z,28.20
2019-06-20T17:40:31.341Z,28.21
2019-06-20T17:42:41.755Z,28.17
2019-06-20T17:44:50.062Z,28.15
2019-06-20T17:46:58.546Z,28.10
2019-06-20T17:49:07.075Z,28.03
2019-06-20T17:51:15.739Z,27.97
2019-06-20T17:53:25.898Z,27.91
2019-06-20T17:55:34.120Z,27.84
2019-06-20T17:57:43.285Z,27.78
2019-06-20T17:59:54.622Z,27.73
2019-06-20T18:02:03.302Z,27.68
2019-06-20T18:04:14.103Z,27.65
2019-06-20T18:06:24.277Z,27.63
2019-06-20T18:08:32.755Z,27.59
2019-06-20T18:10:42.827Z,27.57
2019-06-20T18:12:54.609Z,27.52
2019-06-20T18:15:03.518Z,27.50
2019-06-20T18:17:12.104Z,27.45
2019-06-20T18:19:21.801Z,27.40
2019-06-20T18:21:31.432Z,27.33
2019-06-20T18:23:39.748Z,27.26
2019-06-20T18:25:48.185Z,27.13
2019-06-20T18:27:56.475Z,27.09
2019-06-20T18:30:10.011Z,27.00
2019-06-20T18:32:19.449Z,26.94
2019-06-20T18:34:30.354Z,26.93
2019-06-20T18:36:37.864Z,26.84
2019-06-20T18:38:46.671Z,26.80
2019-06-20T18:40:55.317Z,26.63
2019-06-20T18:43:03.812Z,26.65
2019-06-20T18:45:14.546Z,26.64
2019-06-20T18:47:22.897Z,26.61
2019-06-20T18:49:31.057Z,26.59
2019-06-20T18:51:44.443Z,26.57
2019-06-20T18:53:53.301Z,26.60
2019-06-20T18:56:01.873Z,26.56
2019-06-20T18:58:10.349Z,26.54
2019-06-20T19:00:33.618Z,26.49
2019-06-20T19:02:31.693Z,26.17
2019-06-20T19:04:47.818Z,26.06
2019-06-20T19:06:52.931Z,25.99
2019-06-20T19:09:07.635Z,25.98
2019-06-20T19:11:16.403Z,25.93
2019-06-20T19:13:24.904Z,25.86
2019-06-20T19:15:33.279Z,25.79
2019-06-20T19:17:42.185Z,25.71
2019-06-20T19:19:50.877Z,25.63
2019-06-20T19:22:02.056Z,25.56
2019-06-20T19:24:11.871Z,25.49
2019-06-20T19:26:20.143Z,25.43
2019-06-20T19:28:28.447Z,25.39
2019-06-20T19:30:50.227Z,25.35
2019-06-20T19:33:01.458Z,25.33
2019-06-20T19:35:12.413Z,25.28
2019-06-20T19:37:22.084Z,25.19
2019-06-20T19:39:30.447Z,25.03
2019-06-20T19:41:48.657Z,24.87
2019-06-20T19:43:53.084Z,24.76
2019-06-20T19:46:02.365Z,24.62
2019-06-20T19:48:10.817Z,24.48
2019-06-20T19:50:19.790Z,24.36
2019-06-20T19:52:29.172Z,24.28
2019-06-20T19:54:39.869Z,24.19
2019-06-20T19:56:48.089Z,24.09
2019-06-20T19:58:57.411Z,23.99
2019-06-20T20:01:07.097Z,23.89
2019-06-20T20:03:19.059Z,23.81
2019-06-20T20:05:28.900Z,23.75
2019-06-20T20:07:37.712Z,23.69
2019-06-20T20:09:49.301Z,23.60
2019-06-20T20:12:00.857Z,23.57
2019-06-20T20:14:11.882Z,23.53
2019-06-20T20:16:20.996Z,23.48
2019-06-20T20:18:29.952Z,23.44
2019-06-20T20:20:38.361Z,23.42
2019-06-20T20:22:46.604Z,23.42
2019-06-20T20:24:55.560Z,23.40
2019-06-20T20:27:03.952Z,23.38
2019-06-20T20:29:21.674Z,23.35
2019-06-20T20:31:25.078Z,23.34
2019-06-20T20:33:33.333Z,23.29
2019-06-20T20:35:43.164Z,23.26
2019-06-20T20:37:52.778Z,23.23
2019-06-20T20:40:01.956Z,23.17
2019-06-20T20:42:11.803Z,23.11
2019-06-20T20:44:21.617Z,23.10
2019-06-20T20:46:29.949Z,23.05
2019-06-20T20:48:38.155Z,23.04
2019-06-20T20:50:46.565Z,22.99
2019-06-20T20:52:57.322Z,22.90
2019-06-20T20:55:08.920Z,22.93
2019-06-20T20:57:18.497Z,22.91
2019-06-20T20:59:27.119Z,22.89
2019-06-20T21:01:35.863Z,22.89
2019-06-20T21:03:44.413Z,22.92
2019-06-20T21:05:52.551Z,22.93
2019-06-20T21:08:00.678Z,22.97
2019-06-20T21:10:09.708Z,23.00
2019-06-20T21:12:20.122Z,23.04
2019-06-20T21:14:28.512Z,23.06
2019-06-20T21:16:36.761Z,23.08
2019-06-20T21:18:46.011Z,23.06
2019-06-20T21:20:54.383Z,23.05
2019-06-20T21:23:03.514Z,22.99
2019-06-20T21:25:12.140Z,22.93
2019-06-20T21:27:21.171Z,22.93
2019-06-20T21:29:29.854Z,22.96
2019-06-20T21:31:38.048Z,22.96
2019-06-20T21:33:46.278Z,22.98
2019-06-20T21:36:07.885Z,22.95
2019-06-20T21:38:04.535Z,22.94
2019-06-20T21:40:13.095Z,22.95
2019-06-20T21:42:21.463Z,22.94
2019-06-20T21:44:29.610Z,22.92
2019-06-20T21:46:38.062Z,22.91
2019-06-20T21:48:46.316Z,22.90
2019-06-20T21:50:54.507Z,22.90
2019-06-20T21:53:03.582Z,22.91
2019-06-20T21:55:12.298Z,22.92
2019-06-20T21:57:20.558Z,22.90
2019-06-20T21:59:28.784Z,22.87
2019-06-20T22:01:37.684Z,22.85
2019-06-20T22:03:45.991Z,22.81
2019-06-20T22:05:54.268Z,22.79
2019-06-20T22:08:02.769Z,22.73
2019-06-20T22:10:11.866Z,22.64
2019-06-20T22:12:20.081Z,22.58
2019-06-20T22:14:28.363Z,22.53
2019-06-20T22:16:36.535Z,22.49
2019-06-20T22:18:45.546Z,22.46
2019-06-20T22:20:54.060Z,22.44
2019-06-20T22:23:02.358Z,22.45
2019-06-20T22:25:10.954Z,22.46
2019-06-20T22:27:19.055Z,22.49
2019-06-20T22:29:28.099Z,22.51
2019-06-20T22:31:36.250Z,22.55
2019-06-20T22:33:44.906Z,22.60
2019-06-20T22:35:53.059Z,22.63
2019-06-20T22:38:01.993Z,22.66
2019-06-20T22:40:11.496Z,22.67
2019-06-20T22:42:19.804Z,22.70
2019-06-20T22:44:28.054Z,22.69
2019-06-20T22:46:37.311Z,22.71
2019-06-20T22:48:45.462Z,22.69
2019-06-20T22:50:53.570Z,22.69
2019-06-20T22:53:02.319Z,22.68
2019-06-20T22:55:11.135Z,22.64
2019-06-20T22:57:19.278Z,22.63
2019-06-20T22:59:27.530Z,22.62
2019-06-20T23:01:35.887Z,22.60
2019-06-20T23:03:44.532Z,22.57
2019-06-20T23:05:53.562Z,22.56
2019-06-20T23:08:01.822Z,22.51
2019-06-20T23:10:11.451Z,22.48
2019-06-20T23:12:19.740Z,22.47
2019-06-20T23:14:27.919Z,22.44
2019-06-20T23:16:36.238Z,22.44
2019-06-20T23:18:44.496Z,22.45
2019-06-20T23:21:04.256Z,22.45
2019-06-20T23:23:02.700Z,22.46
2019-06-20T23:25:12.684Z,22.44
2019-06-20T23:27:20.833Z,22.42
2019-06-20T23:29:29.783Z,22.37
2019-06-20T23:31:37.868Z,22.35
2019-06-20T23:33:46.057Z,22.30
2019-06-20T23:35:55.177Z,22.26
2019-06-20T23:38:03.365Z,22.21
2019-06-20T23:40:12.326Z,22.18
2019-06-20T23:42:22.211Z,22.15
2019-06-20T23:44:30.510Z,22.10
2019-06-20T23:46:38.869Z,22.06
2019-06-20T23:48:47.037Z,22.02
2019-06-20T23:50:55.297Z,21.98
2019-06-20T23:53:09.205Z,21.89
2019-06-20T23:55:17.435Z,21.89
2019-06-20T23:57:25.580Z,21.87
2019-06-20T23:59:33.641Z,21.69
